Durant, Oklahoma
Current Conditions -  °F | °C
As of 5:55 PM on Wednesday 22 Oct 2014 (Local Time) from KDUA Reporting Station
Clear Clear  
Wind Chill: 77°   Ceiling: Unl
Heat Index: 79°   Visibility: 10mi
Dew Point: 59°   Wind: 6mph
Humidity: 54%   Direction: 130°SE
Pressure: 30.1"   Gusts: NA
Location:  33.99°N, 96.39°W
Report Text: KDUA 222255Z AUTO 13005KT 10SM CLR 25/15 A3010 RMK AO2
Loading
Personal Weather Stations






























Interactive Weather Map New forecast layout! Learn more

10-Day Weather Forecast

Advertisements
Track Severe Weather on mobile